Edwards, Missouri
Current Conditions -  °F | °C
As of 11:55 AM on Friday 21 Nov 2014 (Local Time) from KH21 Reporting Station
Overcast Overcast  
Wind Chill: 37°   Ceiling: 2100
Heat Index: 45°   Visibility: 10mi
Dew Point: 30°   Wind: 16mph
Humidity: 57%   Direction: 130°SE
Pressure: 30.25"   Gusts: 20mph
Location:  38.14°N, 93.17°W
Report Text: KH21 211755Z AUTO 13014G17KT 10SM OVC021 07/M01 A3025 RMK AO2
Loading
Personal Weather Stations






























Interactive Weather Map New forecast layout! Learn more

10-Day Weather Forecast

Advertisements
Track Severe Weather on mobile